Lovelock, Nevada
Current Conditions -  °F | °C
As of 11:53 PM on Thursday 18 Dec 2014 (Local Time) from KLOL Reporting Station
Clear Clear  
Wind Chill: 28°   Ceiling: Unl
Heat Index: 28°   Visibility: 10mi
Dew Point: 22°   Wind: 3mph
Humidity: 78%   Direction: 230°SW
Pressure: 30.12"   Gusts: NA
Location:  40.18°N, 118.47°W
Report Text: KLOL 190753Z AUTO 23003KT 10SM CLR M02/M06 A3012 RMK AO2 SLP211 T10221056 400941039
Loading
Personal Weather Stations






























Interactive Weather Map New forecast layout! Learn more

10-Day Weather Forecast

Advertisements
Track Severe Weather on mobile